createdAt,value
2023-02-15T00:01:13.281Z,12.70
2023-02-15T00:03:41.385Z,13.27
2023-02-15T00:06:09.264Z,12.85
2023-02-15T00:08:37.073Z,12.65
2023-02-15T00:11:11.838Z,12.10
2023-02-15T00:13:42.413Z,13.60
2023-02-15T00:16:12.415Z,11.98
2023-02-15T00:18:41.271Z,12.30
2023-02-15T00:21:11.347Z,12.88
2023-02-15T00:23:39.268Z,12.10
2023-02-15T00:26:13.308Z,13.10
2023-02-15T00:28:43.805Z,12.88
2023-02-15T00:31:13.120Z,13.30
2023-02-15T00:33:41.168Z,12.65
2023-02-15T00:36:10.841Z,12.93
2023-02-15T00:38:38.992Z,12.90
2023-02-15T00:41:08.732Z,12.55
2023-02-15T00:43:37.770Z,12.07
2023-02-15T00:46:06.535Z,12.55
2023-02-15T00:48:34.686Z,12.18
2023-02-15T00:51:02.912Z,11.25
2023-02-15T00:53:31.620Z,12.27
2023-02-15T00:56:00.112Z,11.25
2023-02-15T00:58:28.102Z,10.80
2023-02-15T01:00:55.934Z,10.32
2023-02-15T01:03:25.029Z,10.70
2023-02-15T01:05:52.896Z,10.90
2023-02-15T01:08:21.236Z,10.98
2023-02-15T01:10:51.101Z,11.20
2023-02-15T01:13:19.276Z,11.50
2023-02-15T01:15:47.405Z,11.38
2023-02-15T01:18:16.065Z,11.05
2023-02-15T01:20:43.931Z,11.15
2023-02-15T01:23:11.738Z,11.18
2023-02-15T01:25:39.752Z,11.93
2023-02-15T01:28:07.603Z,11.45
2023-02-15T01:30:35.276Z,11.35
2023-02-15T01:33:03.248Z,11.65
2023-02-15T01:35:33.183Z,11.57
2023-02-15T01:38:01.005Z,12.02
2023-02-15T01:40:29.071Z,12.43
2023-02-15T01:42:57.201Z,12.55
2023-02-15T01:45:29.544Z,12.10
2023-02-15T01:48:17.552Z,12.63
2023-02-15T01:50:52.664Z,12.35
2023-02-15T01:54:01.032Z,11.93
2023-02-15T01:56:33.534Z,13.23
2023-02-15T01:59:13.055Z,12.25
2023-02-15T02:01:41.129Z,12.27
2023-02-15T02:04:16.430Z,12.00
2023-02-15T02:06:47.727Z,11.77
2023-02-15T02:09:15.622Z,12.00
2023-02-15T02:11:46.998Z,12.52
2023-02-15T02:14:15.384Z,12.50
2023-02-15T02:17:02.249Z,12.65
2023-02-15T02:19:47.357Z,13.13
2023-02-15T02:22:24.631Z,11.50
2023-02-15T02:25:24.181Z,10.90
2023-02-15T02:28:13.061Z,12.75
2023-02-15T02:31:09.768Z,12.82
2023-02-15T02:34:00.681Z,12.20
2023-02-15T02:36:47.374Z,12.68
2023-02-15T02:39:27.248Z,13.07
2023-02-15T02:42:03.099Z,11.48
2023-02-15T02:44:47.043Z,12.27
2023-02-15T02:47:21.398Z,11.77
2023-02-15T02:49:53.495Z,11.55
2023-02-15T02:52:36.400Z,12.45
2023-02-15T02:55:09.070Z,12.25
2023-02-15T02:57:40.140Z,12.98
2023-02-15T03:00:09.946Z,12.15
2023-02-15T03:02:42.732Z,11.90
2023-02-15T03:05:17.046Z,11.85
2023-02-15T03:07:49.244Z,11.88
2023-02-15T03:10:19.184Z,10.95
2023-02-15T03:12:47.101Z,14.63
2023-02-15T03:15:20.621Z,12.57
2023-02-15T03:18:06.878Z,12.13
2023-02-15T03:20:38.028Z,12.07
2023-02-15T03:23:11.339Z,11.32
2023-02-15T03:25:43.278Z,11.13
2023-02-15T03:28:22.412Z,9.18
2023-02-15T03:30:56.631Z,8.57
2023-02-15T03:33:27.726Z,8.65
2023-02-15T03:36:26.182Z,9.20
2023-02-15T03:39:25.155Z,7.10
2023-02-15T03:42:15.140Z,8.45
2023-02-15T03:45:06.957Z,7.88
2023-02-15T03:47:39.614Z,9.48
2023-02-15T03:50:32.606Z,11.00
2023-02-15T03:53:03.911Z,7.47
2023-02-15T03:55:32.383Z,11.68
2023-02-15T03:58:19.078Z,8.70
2023-02-15T04:01:26.041Z,8.45
2023-02-15T04:04:00.752Z,7.05
2023-02-15T04:06:28.677Z,8.30
2023-02-15T04:09:14.887Z,8.15
2023-02-15T04:11:42.681Z,7.63
2023-02-15T04:14:28.823Z,8.23
2023-02-15T04:16:56.674Z,8.15
2023-02-15T04:19:42.766Z,6.82
2023-02-15T04:22:28.865Z,7.13
2023-02-15T04:25:14.752Z,7.13
2023-02-15T04:27:45.162Z,6.13
2023-02-15T04:30:14.715Z,7.75
2023-02-15T04:32:43.142Z,7.38
2023-02-15T04:35:12.433Z,7.68
2023-02-15T04:37:41.110Z,7.00
2023-02-15T04:40:13.012Z,6.65
2023-02-15T04:42:41.197Z,5.53
2023-02-15T04:45:09.397Z,6.60
2023-02-15T04:47:37.401Z,5.75
2023-02-15T04:50:05.926Z,5.10
2023-02-15T04:52:34.056Z,4.70
2023-02-15T04:55:01.977Z,5.32
2023-02-15T04:57:31.024Z,5.10
2023-02-15T05:00:00.358Z,5.03
2023-02-15T05:02:28.314Z,4.57
2023-02-15T05:04:56.345Z,5.60
2023-02-15T05:07:24.213Z,4.88
2023-02-15T05:09:52.006Z,6.03
2023-02-15T05:12:19.965Z,5.88
2023-02-15T05:14:47.788Z,5.70
2023-02-15T05:17:15.815Z,4.82
2023-02-15T05:19:43.730Z,5.55
2023-02-15T05:22:11.679Z,4.70
2023-02-15T05:24:57.752Z,4.63
2023-02-15T05:27:43.897Z,4.55
2023-02-15T05:30:12.964Z,4.88
2023-02-15T05:32:44.116Z,5.00
2023-02-15T05:35:17.016Z,7.00
2023-02-15T05:37:45.092Z,5.70
2023-02-15T05:40:13.211Z,6.50
2023-02-15T05:42:41.099Z,6.28
2023-02-15T05:45:09.043Z,7.95
2023-02-15T05:47:36.836Z,7.35
2023-02-15T05:50:04.892Z,6.93
2023-02-15T05:52:32.954Z,9.68
2023-02-15T05:55:01.542Z,8.32
2023-02-15T05:57:29.965Z,7.85
2023-02-15T05:59:58.179Z,8.50
2023-02-15T06:02:26.044Z,7.65
2023-02-15T06:04:54.045Z,8.15
2023-02-15T06:07:21.943Z,9.43
2023-02-15T06:09:49.802Z,8.40
2023-02-15T06:12:17.793Z,8.68
2023-02-15T06:14:45.819Z,8.30
2023-02-15T06:17:13.745Z,9.32
2023-02-15T06:19:41.776Z,8.85
2023-02-15T06:22:09.966Z,10.15
2023-02-15T06:24:37.745Z,9.65
2023-02-15T06:27:05.571Z,9.27
2023-02-15T06:29:33.425Z,9.57
2023-02-15T06:32:01.578Z,9.65
2023-02-15T06:34:29.540Z,10.00
2023-02-15T06:36:57.554Z,9.43
2023-02-15T06:39:25.624Z,9.43
2023-02-15T06:41:53.448Z,8.15
2023-02-15T06:44:21.414Z,8.77
2023-02-15T06:46:49.348Z,8.93
2023-02-15T06:49:17.586Z,9.50
2023-02-15T06:51:45.567Z,9.38
2023-02-15T06:54:13.450Z,9.73
2023-02-15T06:56:41.319Z,7.15
2023-02-15T06:59:09.294Z,7.05
2023-02-15T07:01:38.339Z,7.82
2023-02-15T07:04:07.167Z,8.07
2023-02-15T07:06:35.621Z,10.95
2023-02-15T07:09:04.476Z,12.23
2023-02-15T07:11:50.733Z,11.15
2023-02-15T07:14:18.701Z,9.18
2023-02-15T07:16:46.611Z,8.10
2023-02-15T07:19:14.662Z,10.68
2023-02-15T07:21:42.666Z,11.50
2023-02-15T07:24:10.551Z,11.60
2023-02-15T07:26:38.627Z,9.68
2023-02-15T07:29:06.669Z,8.57
2023-02-15T07:31:34.559Z,9.00
2023-02-15T07:34:02.487Z,7.82
2023-02-15T07:36:30.401Z,7.65
2023-02-15T07:38:58.272Z,7.82
2023-02-15T07:41:26.184Z,7.10
2023-02-15T07:43:54.257Z,7.80
2023-02-15T07:46:22.906Z,7.40
2023-02-15T07:48:50.957Z,7.38
2023-02-15T07:51:18.976Z,6.75
2023-02-15T07:53:48.341Z,6.72
2023-02-15T07:56:16.846Z,6.50
2023-02-15T07:58:53.588Z,7.60
2023-02-15T08:01:31.680Z,6.85
2023-02-15T08:04:00.226Z,7.22
2023-02-15T08:06:31.932Z,6.65
2023-02-15T08:09:00.037Z,6.50
2023-02-15T08:11:33.860Z,5.82
2023-02-15T08:14:13.615Z,5.95
2023-02-15T08:16:52.719Z,6.70
2023-02-15T08:19:26.003Z,5.88
2023-02-15T08:21:59.126Z,12.27
2023-02-15T08:24:29.582Z,13.55
2023-02-15T08:26:58.012Z,6.55
2023-02-15T08:29:28.717Z,6.90
2023-02-15T08:32:03.508Z,9.50
2023-02-15T08:34:34.027Z,8.25
2023-02-15T08:37:02.227Z,8.10
2023-02-15T08:39:30.182Z,5.35
2023-02-15T08:41:58.040Z,6.40
2023-02-15T08:44:26.069Z,7.28
2023-02-15T08:46:53.915Z,7.50
2023-02-15T08:49:23.055Z,8.70
2023-02-15T08:51:51.377Z,9.40
2023-02-15T08:54:22.994Z,9.98
2023-02-15T08:56:50.906Z,6.68
2023-02-15T08:59:21.505Z,5.50
2023-02-15T09:01:51.541Z,5.82
2023-02-15T09:04:20.467Z,8.50
2023-02-15T09:06:50.354Z,5.22
2023-02-15T09:09:19.627Z,5.05
2023-02-15T09:11:57.748Z,4.95
2023-02-15T09:14:28.033Z,6.93
2023-02-15T09:16:56.436Z,13.38
2023-02-15T09:19:26.300Z,5.35
2023-02-15T09:21:54.385Z,28.75
2023-02-15T09:24:22.639Z,5.28
2023-02-15T09:26:50.848Z,8.70
2023-02-15T09:29:19.990Z,4.35
2023-02-15T09:31:51.332Z,4.35
2023-02-15T09:34:21.842Z,4.93
2023-02-15T09:36:50.760Z,4.15
2023-02-15T09:39:20.247Z,3.75
2023-02-15T09:41:57.128Z,4.32
2023-02-15T09:44:59.170Z,2.90
2023-02-15T09:47:42.209Z,3.63
2023-02-15T09:50:13.055Z,3.90
2023-02-15T09:52:57.611Z,2.47
2023-02-15T09:55:30.977Z,3.97
2023-02-15T09:58:34.293Z,3.03
2023-02-15T10:01:36.104Z,2.20
2023-02-15T10:04:12.460Z,2.75
2023-02-15T10:06:50.811Z,2.45
2023-02-15T10:09:56.215Z,2.03
2023-02-15T10:12:47.939Z,2.33
2023-02-15T10:15:40.216Z,2.50
2023-02-15T10:18:34.984Z,2.25
2023-02-15T10:21:29.523Z,1.90
2023-02-15T10:24:28.312Z,2.35
2023-02-15T10:27:03.928Z,2.40
2023-02-15T10:29:38.517Z,2.63
2023-02-15T10:32:30.177Z,2.95
2023-02-15T10:35:08.394Z,2.78
2023-02-15T10:37:55.025Z,2.08
2023-02-15T10:40:34.976Z,2.00
2023-02-15T10:43:33.808Z,2.40
2023-02-15T10:46:25.180Z,2.00
2023-02-15T10:48:56.329Z,1.65
2023-02-15T10:51:51.403Z,2.10
2023-02-15T10:54:37.656Z,3.30
2023-02-15T10:57:14.051Z,2.00
2023-02-15T11:00:12.295Z,2.10
2023-02-15T11:03:08.302Z,3.20
2023-02-15T11:06:03.313Z,3.60
2023-02-15T11:08:38.469Z,3.60
2023-02-15T11:11:10.806Z,3.15
2023-02-15T11:13:44.573Z,2.65
2023-02-15T11:16:18.618Z,3.10
2023-02-15T11:19:13.024Z,2.30
2023-02-15T11:21:45.959Z,2.15
2023-02-15T11:24:19.522Z,2.72
2023-02-15T11:27:05.315Z,3.65
2023-02-15T11:29:42.558Z,8.50
2023-02-15T11:32:25.181Z,3.50
2023-02-15T11:35:33.926Z,9.00
2023-02-15T11:38:16.301Z,3.72
2023-02-15T11:40:50.916Z,3.00
2023-02-15T11:43:42.925Z,3.30
2023-02-15T11:46:13.808Z,3.50
2023-02-15T11:48:43.649Z,2.90
2023-02-15T11:51:17.295Z,2.90
2023-02-15T11:53:47.149Z,2.95
2023-02-15T11:56:21.586Z,3.97
2023-02-15T11:59:01.002Z,3.65
2023-02-15T12:01:33.662Z,3.63
2023-02-15T12:04:27.555Z,3.58
2023-02-15T12:07:24.160Z,4.63
2023-02-15T12:10:18.407Z,3.53
2023-02-15T12:12:46.327Z,2.83
2023-02-15T12:15:15.436Z,3.47
2023-02-15T12:17:50.680Z,3.17
2023-02-15T12:20:18.539Z,3.45
2023-02-15T12:22:56.085Z,3.17
2023-02-15T12:25:53.601Z,3.40
2023-02-15T12:28:31.277Z,3.58
2023-02-15T12:31:00.958Z,3.60
2023-02-15T12:33:46.783Z,3.88
2023-02-15T12:36:24.184Z,4.75
2023-02-15T12:39:09.359Z,4.22
2023-02-15T12:41:38.492Z,4.38
2023-02-15T12:44:17.005Z,4.30
2023-02-15T12:47:00.073Z,3.72
2023-02-15T12:49:30.759Z,4.03
2023-02-15T12:52:01.271Z,3.88
2023-02-15T12:54:37.023Z,3.95
2023-02-15T12:57:37.641Z,3.80
2023-02-15T13:00:28.921Z,3.80
2023-02-15T13:02:58.828Z,4.68
2023-02-15T13:05:27.437Z,4.90
2023-02-15T13:08:02.868Z,4.88
2023-02-15T13:10:35.687Z,4.18
2023-02-15T13:13:12.341Z,4.75
2023-02-15T13:15:45.616Z,7.45
2023-02-15T13:18:36.497Z,4.72
2023-02-15T13:21:19.960Z,5.60
2023-02-15T13:23:53.101Z,5.75
2023-02-15T13:26:24.483Z,4.35
2023-02-15T13:28:56.522Z,5.10
2023-02-15T13:31:33.927Z,5.40
2023-02-15T13:36:43.023Z,5.25
2023-02-15T13:39:17.278Z,4.75
2023-02-15T13:42:07.384Z,5.72
2023-02-15T13:45:02.664Z,5.18
2023-02-15T13:47:56.320Z,5.93
2023-02-15T13:50:44.879Z,6.35
2023-02-15T13:53:39.757Z,6.85
2023-02-15T13:56:23.272Z,8.40
2023-02-15T13:59:05.092Z,6.63
2023-02-15T14:01:44.820Z,6.75
2023-02-15T14:04:51.412Z,5.97
2023-02-15T14:07:48.924Z,5.82
2023-02-15T14:10:36.290Z,5.78
2023-02-15T14:13:16.983Z,7.18
2023-02-15T14:15:59.761Z,6.30
2023-02-15T14:18:50.483Z,6.10
2023-02-15T14:21:31.513Z,7.53
2023-02-15T14:24:19.753Z,8.43
2023-02-15T14:27:08.565Z,10.40
2023-02-15T14:29:59.230Z,9.73
2023-02-15T14:32:30.064Z,7.38
2023-02-15T14:35:01.134Z,7.40
2023-02-15T14:37:38.208Z,7.18
2023-02-15T14:40:58.716Z,6.95
2023-02-15T14:43:42.688Z,6.60
2023-02-15T14:46:37.770Z,6.82
2023-02-15T14:49:26.395Z,7.55
2023-02-15T14:52:13.650Z,6.30
2023-02-15T14:54:41.429Z,6.63
2023-02-15T14:57:09.583Z,7.60
2023-02-15T14:59:51.564Z,7.97
2023-02-15T15:02:26.792Z,6.20
2023-02-15T15:05:04.030Z,5.95
2023-02-15T15:07:57.165Z,6.70
2023-02-15T15:10:24.985Z,6.57
2023-02-15T15:12:57.773Z,7.13
2023-02-15T15:15:28.888Z,9.35
2023-02-15T15:18:07.335Z,9.88
2023-02-15T15:20:47.648Z,9.32
2023-02-15T15:23:16.208Z,6.82
2023-02-15T15:25:58.140Z,7.65
2023-02-15T15:28:35.194Z,8.32
2023-02-15T15:31:40.277Z,6.93
2023-02-15T15:34:17.419Z,7.35
2023-02-15T15:37:32.946Z,6.47
2023-02-15T15:40:16.115Z,7.22
2023-02-15T15:42:50.387Z,6.82
2023-02-15T15:45:57.428Z,6.43
2023-02-15T15:48:30.561Z,7.82
2023-02-15T15:51:05.033Z,7.88
2023-02-15T15:53:42.449Z,9.00
2023-02-15T15:58:46.293Z,6.55
2023-02-15T16:01:15.156Z,7.85
2023-02-15T16:03:54.676Z,7.38
2023-02-15T16:06:37.871Z,7.20
2023-02-15T16:09:27.088Z,7.68
2023-02-15T16:12:01.649Z,8.23
2023-02-15T16:14:37.210Z,8.80
2023-02-15T16:17:08.728Z,9.20
2023-02-15T16:19:40.238Z,9.30
2023-02-15T16:22:14.803Z,8.00
2023-02-15T16:25:16.650Z,8.60
2023-02-15T16:27:46.150Z,8.80
2023-02-15T16:30:35.869Z,7.70
2023-02-15T16:33:10.172Z,8.00
2023-02-15T16:35:54.246Z,7.53
2023-02-15T16:38:44.143Z,7.05
2023-02-15T16:41:17.519Z,6.85
2023-02-15T16:43:49.967Z,7.68
2023-02-15T16:46:23.996Z,7.85
2023-02-15T16:48:54.911Z,8.68
2023-02-15T16:51:29.186Z,9.80
2023-02-15T16:54:01.757Z,8.40
2023-02-15T16:56:32.293Z,8.30
2023-02-15T16:59:01.921Z,8.05
2023-02-15T17:01:32.800Z,7.18
2023-02-15T17:04:40.565Z,6.68
2023-02-15T17:07:22.247Z,8.05
2023-02-15T17:09:58.414Z,7.95
2023-02-15T17:12:45.174Z,8.63
2023-02-15T17:15:36.270Z,9.88
2023-02-15T17:18:10.342Z,9.35
2023-02-15T17:20:43.025Z,10.07
2023-02-15T17:23:27.545Z,12.20
2023-02-15T17:25:56.336Z,11.63
2023-02-15T17:28:27.261Z,11.70
2023-02-15T17:30:59.208Z,11.43
2023-02-15T17:33:40.555Z,11.90
2023-02-15T17:36:15.017Z,12.65
2023-02-15T17:39:05.949Z,12.48
2023-02-15T17:41:36.151Z,11.82
2023-02-15T17:44:05.740Z,8.45
2023-02-15T17:46:38.688Z,9.65
2023-02-15T17:49:07.352Z,12.43
2023-02-15T17:51:38.703Z,9.35
2023-02-15T17:54:24.954Z,9.23
2023-02-15T17:56:55.857Z,7.45
2023-02-15T17:59:26.989Z,8.23
2023-02-15T18:02:13.264Z,8.40
2023-02-15T18:05:01.148Z,8.18
2023-02-15T18:07:49.476Z,9.48
2023-02-15T18:10:37.997Z,9.85
2023-02-15T18:13:07.063Z,11.20
2023-02-15T18:15:35.802Z,8.80
2023-02-15T18:18:05.129Z,7.28
2023-02-15T18:20:43.886Z,7.72
2023-02-15T18:23:15.024Z,5.30
2023-02-15T18:25:43.621Z,3.90
2023-02-15T18:28:12.143Z,4.55
2023-02-15T18:30:43.981Z,5.20
2023-02-15T18:33:32.240Z,6.20
2023-02-15T18:38:29.459Z,8.05
2023-02-15T18:40:57.823Z,7.22
2023-02-15T18:43:26.105Z,9.07
2023-02-15T18:45:56.588Z,10.00
2023-02-15T18:48:24.607Z,11.40
2023-02-15T18:50:53.439Z,9.35
2023-02-15T18:53:25.576Z,8.68
2023-02-15T18:55:54.182Z,7.28
2023-02-15T18:58:25.026Z,8.90
2023-02-15T19:00:53.661Z,9.77
2023-02-15T19:03:21.818Z,8.60
2023-02-15T19:05:52.236Z,8.35
2023-02-15T19:08:24.796Z,7.55
2023-02-15T19:10:53.204Z,6.55
2023-02-15T19:13:21.223Z,6.55
2023-02-15T19:15:49.165Z,8.25
2023-02-15T19:18:17.986Z,8.13
2023-02-15T19:20:47.547Z,8.05
2023-02-15T19:23:22.866Z,7.70
2023-02-15T19:25:54.064Z,7.97
2023-02-15T19:28:32.795Z,6.30
2023-02-15T19:31:00.977Z,7.28
2023-02-15T19:33:28.965Z,7.13
2023-02-15T19:35:57.861Z,7.20
2023-02-15T19:38:31.240Z,6.90
2023-02-15T19:41:06.387Z,6.10
2023-02-15T19:43:35.638Z,6.57
2023-02-15T19:46:04.079Z,6.30
2023-02-15T19:48:32.295Z,7.70
2023-02-15T19:51:04.953Z,9.57
2023-02-15T19:53:33.158Z,10.77
2023-02-15T19:56:01.259Z,10.93
2023-02-15T19:58:30.175Z,11.30
2023-02-15T20:00:58.172Z,10.77
2023-02-15T20:03:26.272Z,9.60
2023-02-15T20:05:54.503Z,15.57
2023-02-15T20:08:23.678Z,11.95
2023-02-15T20:10:51.950Z,12.65
2023-02-15T20:13:20.662Z,13.80
2023-02-15T20:15:50.020Z,13.52
2023-02-15T20:18:19.226Z,13.63
2023-02-15T20:20:53.574Z,22.60
2023-02-15T20:23:31.091Z,51.00
2023-02-15T20:26:01.061Z,54.60
2023-02-15T20:28:31.889Z,65.82
2023-02-15T20:31:00.267Z,49.40
2023-02-15T20:33:28.351Z,24.00
2023-02-15T20:35:56.425Z,11.23
2023-02-15T20:38:28.326Z,7.88
2023-02-15T20:41:15.848Z,7.43
2023-02-15T20:43:44.112Z,8.80
2023-02-15T20:46:12.232Z,10.07
2023-02-15T20:48:40.269Z,11.98
2023-02-15T20:51:18.339Z,17.20
2023-02-15T20:53:47.295Z,17.23
2023-02-15T20:56:23.826Z,9.75
2023-02-15T20:58:52.787Z,7.97
2023-02-15T21:01:21.314Z,6.55
2023-02-15T21:03:50.108Z,6.28
2023-02-15T21:06:18.558Z,6.93
2023-02-15T21:08:46.449Z,6.80
2023-02-15T21:11:21.423Z,6.60
2023-02-15T21:13:50.777Z,5.82
2023-02-15T21:16:18.842Z,6.30
2023-02-15T21:18:46.907Z,5.63
2023-02-15T21:21:23.827Z,6.20
2023-02-15T21:23:53.707Z,6.72
2023-02-15T21:26:23.073Z,10.23
2023-02-15T21:28:51.276Z,18.50
2023-02-15T21:31:21.785Z,13.98
2023-02-15T21:33:49.939Z,8.65
2023-02-15T21:36:22.635Z,6.60
2023-02-15T21:38:51.913Z,5.43
2023-02-15T21:41:44.418Z,5.53
2023-02-15T21:44:37.581Z,5.82
2023-02-15T21:47:24.768Z,7.07
2023-02-15T21:49:53.240Z,6.70
2023-02-15T21:52:23.960Z,6.45
2023-02-15T21:54:52.096Z,6.38
2023-02-15T21:57:22.104Z,7.38
2023-02-15T21:59:50.508Z,6.30
2023-02-15T22:02:30.663Z,7.47
2023-02-15T22:04:59.420Z,6.68
2023-02-15T22:07:30.211Z,6.30
2023-02-15T22:09:57.989Z,6.10
2023-02-15T22:12:26.198Z,6.50
2023-02-15T22:14:54.708Z,7.07
2023-02-15T22:17:25.321Z,6.43
2023-02-15T22:19:54.279Z,7.20
2023-02-15T22:22:22.443Z,6.60
2023-02-15T22:24:50.545Z,6.43
2023-02-15T22:27:22.449Z,7.22
2023-02-15T22:29:50.923Z,7.13
2023-02-15T22:32:21.201Z,6.97
2023-02-15T22:34:50.130Z,7.03
2023-02-15T22:37:18.189Z,6.50
2023-02-15T22:39:46.228Z,6.40
2023-02-15T22:42:28.605Z,6.13
2023-02-15T22:44:58.248Z,6.80
2023-02-15T22:47:28.899Z,6.82
2023-02-15T22:49:56.993Z,7.45
2023-02-15T22:52:25.070Z,7.63
2023-02-15T22:54:52.904Z,7.75
2023-02-15T22:57:29.376Z,7.40
2023-02-15T22:59:57.860Z,7.53
2023-02-15T23:02:25.762Z,8.55
2023-02-15T23:04:53.972Z,8.10
2023-02-15T23:07:23.449Z,8.07
2023-02-15T23:09:51.663Z,8.77
2023-02-15T23:12:22.502Z,8.23
2023-02-15T23:14:50.570Z,7.80
2023-02-15T23:17:18.453Z,8.70
2023-02-15T23:19:46.805Z,8.30
2023-02-15T23:22:18.690Z,7.97
2023-02-15T23:24:53.089Z,8.30
2023-02-15T23:27:39.705Z,7.35
2023-02-15T23:30:13.948Z,7.65
2023-02-15T23:32:41.841Z,7.43
2023-02-15T23:35:20.305Z,7.40
2023-02-15T23:37:48.208Z,6.90
2023-02-15T23:40:36.442Z,7.65
2023-02-15T23:43:05.117Z,7.45
2023-02-15T23:45:39.272Z,8.18
2023-02-15T23:48:33.021Z,8.60
2023-02-15T23:51:02.098Z,8.65
2023-02-15T23:53:30.486Z,9.50
2023-02-15T23:55:58.920Z,8.88
2023-02-15T23:58:37.941Z,8.88
